Time;durP1;ratioP1;P1;durP2;ratioP2;P2;SDS_P1;SDS_P2;PMS_P1;PMS_P2;Temp;Humidity;BMP_temperature;BMP_pressure;BME280_temperature;BME280_humidity;BME280_pressure;Samples;Min_cycle;Max_cycle;Signal;HPM_P1;HPM_P2
2022/12/24 00:02:10;;;;;;;26.70;13.95;;;;;;;;;;4976801;28;20483;-77
2022/12/24 00:04:36;;;;;;;31.00;14.80;;;;;;;;;;4977301;28;20065;-77
2022/12/24 00:07:03;;;;;;;27.05;13.88;;;;;;;;;;4992255;28;20046;-77
2022/12/24 00:09:29;;;;;;;28.45;14.43;;;;;;;;;;4994258;28;20069;-76
2022/12/24 00:11:55;;;;;;;29.13;14.00;;;;;;;;;;5021598;28;20046;-76
2022/12/24 00:14:21;;;;;;;29.38;14.07;;;;;;;;;;5032693;28;20521;-76
2022/12/24 00:16:47;;;;;;;27.48;13.88;;;;;;;;;;5033296;28;20133;-76
2022/12/24 00:19:13;;;;;;;29.30;13.75;;;;;;;;;;5026626;28;20042;-76
2022/12/24 00:21:39;;;;;;;29.20;14.15;;;;;;;;;;5024500;28;20049;-76
2022/12/24 00:24:05;;;;;;;29.35;14.35;;;;;;;;;;5012394;28;20050;-76
2022/12/24 00:26:32;;;;;;;27.35;14.45;;;;;;;;;;5013527;28;20463;-77
2022/12/24 00:28:58;;;;;;;31.45;14.10;;;;;;;;;;4991228;28;20156;-77
2022/12/24 00:31:24;;;;;;;29.60;13.57;;;;;;;;;;4976561;28;20046;-77
2022/12/24 00:33:50;;;;;;;29.02;13.90;;;;;;;;;;4976156;28;20051;-77
2022/12/24 00:36:17;;;;;;;26.48;13.27;;;;;;;;;;4985002;28;20092;-77
2022/12/24 00:38:44;;;;;;;28.85;13.55;;;;;;;;;;5013336;28;20046;-77
2022/12/24 00:41:23;;;;;;;27.95;13.52;;;;;;;;;;5013354;28;20089;-76
2022/12/24 00:43:55;;;;;;;27.52;13.60;;;;;;;;;;5015257;28;20125;-77
2022/12/24 00:46:22;;;;;;;24.35;13.60;;;;;;;;;;5016909;28;20116;-77
2022/12/24 00:48:48;;;;;;;31.05;14.38;;;;;;;;;;5016755;28;20046;-77
2022/12/24 00:51:14;;;;;;;24.13;12.93;;;;;;;;;;5015499;28;20134;-77
2022/12/24 00:53:41;;;;;;;31.27;14.27;;;;;;;;;;5016861;28;20042;-77
2022/12/24 00:56:07;;;;;;;27.15;14.38;;;;;;;;;;5016483;28;20045;-77
2022/12/24 00:58:33;;;;;;;30.98;14.70;;;;;;;;;;5017417;28;20050;-77
2022/12/24 01:00:59;;;;;;;32.90;14.10;;;;;;;;;;4998504;28;20053;-77
2022/12/24 01:03:34;;;;;;;28.48;14.82;;;;;;;;;;5016817;28;20049;-77
2022/12/24 01:06:04;;;;;;;30.10;15.38;;;;;;;;;;4997460;28;20406;-77
2022/12/24 01:08:30;;;;;;;28.30;14.30;;;;;;;;;;5016890;28;20133;-77
2022/12/24 01:10:57;;;;;;;28.55;14.93;;;;;;;;;;5016317;28;20448;-77
2022/12/24 01:13:23;;;;;;;30.98;14.23;;;;;;;;;;5027153;28;20490;-77
2022/12/24 01:15:49;;;;;;;25.63;13.02;;;;;;;;;;5010463;28;20137;-77
2022/12/24 01:18:15;;;;;;;32.53;15.23;;;;;;;;;;5026330;28;20119;-77
2022/12/24 01:20:42;;;;;;;31.90;13.60;;;;;;;;;;5001043;28;20046;-76
2022/12/24 01:23:08;;;;;;;26.80;13.60;;;;;;;;;;4996462;28;20039;-76
2022/12/24 01:25:34;;;;;;;27.05;13.52;;;;;;;;;;4996250;28;20053;-76
2022/12/24 01:28:00;;;;;;;28.33;13.80;;;;;;;;;;4996701;28;20042;-76
2022/12/24 01:30:26;;;;;;;28.55;13.70;;;;;;;;;;4996676;28;20178;-77
2022/12/24 01:32:52;;;;;;;27.88;14.25;;;;;;;;;;5003536;28;20446;-77
2022/12/24 01:35:18;;;;;;;28.33;13.25;;;;;;;;;;5008859;28;20509;-77
2022/12/24 01:37:44;;;;;;;27.70;13.82;;;;;;;;;;5014851;28;20045;-77
2022/12/24 01:45:45;;;;;;;29.52;14.18;;;;;;;;;;4979189;28;20062;-77
2022/12/24 01:48:21;;;;;;;30.77;14.07;;;;;;;;;;4993229;28;20471;-77
2022/12/24 01:50:49;;;;;;;28.23;14.27;;;;;;;;;;4996034;28;20043;-76
2022/12/24 01:53:15;;;;;;;32.25;14.88;;;;;;;;;;4995908;28;20038;-75
2022/12/24 01:55:42;;;;;;;30.70;13.10;;;;;;;;;;4997497;28;20120;-75
2022/12/24 01:58:09;;;;;;;37.28;15.27;;;;;;;;;;5017449;28;20041;-76
2022/12/24 02:00:35;;;;;;;29.23;13.30;;;;;;;;;;5017372;28;20042;-76
2022/12/24 02:03:01;;;;;;;30.80;14.68;;;;;;;;;;5015075;28;20050;-76
2022/12/24 02:05:39;;;;;;;32.10;14.25;;;;;;;;;;5015244;28;20065;-76
2022/12/24 02:08:07;;;;;;;38.03;15.52;;;;;;;;;;5014197;28;20042;-76
2022/12/24 02:10:33;;;;;;;32.28;15.50;;;;;;;;;;4996343;28;20050;-76
2022/12/24 02:13:00;;;;;;;31.05;15.32;;;;;;;;;;4997696;28;20194;-76
2022/12/24 02:15:29;;;;;;;30.48;15.48;;;;;;;;;;5015375;28;20061;-76
2022/12/24 02:17:57;;;;;;;35.63;15.65;;;;;;;;;;5015062;28;20557;-76
2022/12/24 02:20:47;;;;;;;33.03;15.35;;;;;;;;;;5011877;28;20128;-75
2022/12/24 02:23:32;;;;;;;31.88;14.85;;;;;;;;;;5018005;28;20033;-75
2022/12/24 02:26:07;;;;;;;42.33;16.30;;;;;;;;;;5034956;28;20136;-75
2022/12/24 02:28:33;;;;;;;30.80;14.23;;;;;;;;;;5034839;28;20045;-75
2022/12/24 02:31:02;;;;;;;37.17;16.05;;;;;;;;;;5032596;28;20125;-76
2022/12/24 02:33:46;;;;;;;35.85;15.55;;;;;;;;;;5008147;28;20041;-75
2022/12/24 02:36:20;;;;;;;35.38;15.35;;;;;;;;;;5014667;28;20038;-75
2022/12/24 02:38:48;;;;;;;38.42;16.10;;;;;;;;;;5007878;28;20039;-76
2022/12/24 02:42:04;;;;;;;37.85;16.10;;;;;;;;;;5009969;28;20042;-75
2022/12/24 02:44:17;;;;;;;37.85;16.75;;;;;;;;;;5014332;28;20140;-76
2022/12/24 02:46:43;;;;;;;36.75;16.10;;;;;;;;;;5023771;28;20063;-76
2022/12/24 02:49:09;;;;;;;32.17;15.75;;;;;;;;;;4999749;28;20382;-76
2022/12/24 02:51:35;;;;;;;49.38;17.58;;;;;;;;;;4981538;28;20053;-77
2022/12/24 02:54:01;;;;;;;34.40;16.13;;;;;;;;;;5001967;28;20037;-77
2022/12/24 02:56:27;;;;;;;39.17;17.08;;;;;;;;;;5034798;28;20064;-77
2022/12/24 02:59:06;;;;;;;37.63;16.73;;;;;;;;;;5034311;28;20440;-77
2022/12/24 03:01:54;;;;;;;40.72;16.45;;;;;;;;;;5034076;28;20077;-77
2022/12/24 03:04:39;;;;;;;34.75;15.55;;;;;;;;;;4999128;28;20500;-76
2022/12/24 03:07:05;;;;;;;38.03;16.63;;;;;;;;;;4985339;28;20072;-77
2022/12/24 03:09:51;;;;;;;27.40;14.60;;;;;;;;;;4982191;28;20494;-77
2022/12/24 03:12:31;;;;;;;38.90;17.13;;;;;;;;;;5023135;28;20108;-77
2022/12/24 03:14:57;;;;;;;33.10;15.65;;;;;;;;;;5015700;28;20132;-77
2022/12/24 03:17:24;;;;;;;35.88;16.83;;;;;;;;;;5020192;28;20548;-76
2022/12/24 03:19:50;;;;;;;42.83;16.65;;;;;;;;;;5003426;28;20049;-77
2022/12/24 03:22:16;;;;;;;31.45;15.25;;;;;;;;;;4996780;28;20046;-77
2022/12/24 03:24:42;;;;;;;28.83;15.48;;;;;;;;;;5014252;28;20050;-77
2022/12/24 03:27:09;;;;;;;34.90;16.48;;;;;;;;;;5029665;28;20141;-77
2022/12/24 03:29:35;;;;;;;33.78;16.58;;;;;;;;;;5033339;28;20044;-77
2022/12/24 03:32:02;;;;;;;37.40;17.13;;;;;;;;;;4997479;28;20093;-77
2022/12/24 03:34:28;;;;;;;37.30;16.95;;;;;;;;;;4976784;28;20126;-77
2022/12/24 03:36:54;;;;;;;35.38;17.02;;;;;;;;;;5019765;28;20076;-76
2022/12/24 03:39:20;;;;;;;33.60;16.00;;;;;;;;;;5033455;28;20072;-76
2022/12/24 03:41:47;;;;;;;36.08;16.13;;;;;;;;;;5033399;28;20061;-77
2022/12/24 03:44:13;;;;;;;32.10;14.45;;;;;;;;;;5016047;28;20049;-77
2022/12/24 03:46:39;;;;;;;33.85;16.00;;;;;;;;;;4995975;28;20042;-77
2022/12/24 03:49:05;;;;;;;31.08;14.23;;;;;;;;;;4988396;28;20041;-77
2022/12/24 03:51:32;;;;;;;30.13;14.55;;;;;;;;;;5014633;28;20465;-77
2022/12/24 03:53:58;;;;;;;32.13;15.23;;;;;;;;;;5013490;28;20159;-77
2022/12/24 03:56:25;;;;;;;35.67;14.70;;;;;;;;;;5013263;28;20491;-77
2022/12/24 03:58:52;;;;;;;28.90;14.35;;;;;;;;;;5013492;28;20049;-77
2022/12/24 04:01:18;;;;;;;34.63;13.32;;;;;;;;;;5017758;28;20046;-77
2022/12/24 04:03:44;;;;;;;26.38;12.13;;;;;;;;;;5014969;28;20073;-78
2022/12/24 04:06:12;;;;;;;20.05;11.00;;;;;;;;;;4978631;28;20046;-77
2022/12/24 04:08:38;;;;;;;25.58;9.48;;;;;;;;;;5014595;28;20117;-77
2022/12/24 04:11:05;;;;;;;25.40;8.98;;;;;;;;;;5013191;28;20486;-77
2022/12/24 04:13:31;;;;;;;21.83;8.90;;;;;;;;;;5012981;28;20461;-78
2022/12/24 04:15:58;;;;;;;21.73;9.00;;;;;;;;;;4996482;28;20046;-77
2022/12/24 04:18:24;;;;;;;19.83;8.23;;;;;;;;;;4998516;28;20101;-77
2022/12/24 04:20:50;;;;;;;18.17;8.05;;;;;;;;;;5015437;28;21680;-77
2022/12/24 04:23:16;;;;;;;23.13;7.80;;;;;;;;;;5010883;28;20494;-77
2022/12/24 04:25:42;;;;;;;23.23;8.25;;;;;;;;;;4995508;28;20042;-77
2022/12/24 04:28:09;;;;;;;18.73;7.93;;;;;;;;;;5014650;28;20094;-77
2022/12/24 04:30:35;;;;;;;30.02;8.48;;;;;;;;;;4997668;28;20414;-77
2022/12/24 04:33:01;;;;;;;30.80;8.20;;;;;;;;;;4995931;28;20525;-77
2022/12/24 04:35:27;;;;;;;26.58;7.82;;;;;;;;;;5000029;28;20062;-77
2022/12/24 04:37:53;;;;;;;25.42;7.43;;;;;;;;;;5036952;28;20043;-77
2022/12/24 04:40:19;;;;;;;24.10;6.30;;;;;;;;;;5036424;28;20041;-77
2022/12/24 04:42:45;;;;;;;22.63;6.47;;;;;;;;;;5036617;28;20509;-77
2022/12/24 04:45:11;;;;;;;21.55;6.00;;;;;;;;;;5032465;28;20377;-77
2022/12/24 04:47:37;;;;;;;23.17;6.32;;;;;;;;;;4999428;28;20505;-77
2022/12/24 04:50:03;;;;;;;25.08;5.65;;;;;;;;;;4999090;28;20054;-77
2022/12/24 04:52:29;;;;;;;26.05;6.18;;;;;;;;;;5016765;28;20038;-77
2022/12/24 04:54:55;;;;;;;23.52;6.07;;;;;;;;;;5000301;28;20068;-77
2022/12/24 04:57:21;;;;;;;29.27;5.93;;;;;;;;;;5016585;28;20038;-77
2022/12/24 04:59:47;;;;;;;21.05;5.82;;;;;;;;;;4999182;28;20129;-77
2022/12/24 05:02:13;;;;;;;22.65;5.60;;;;;;;;;;5010985;28;20451;-77
2022/12/24 05:04:39;;;;;;;28.15;5.60;;;;;;;;;;5034037;28;20128;-77
2022/12/24 05:07:05;;;;;;;26.90;5.70;;;;;;;;;;5018479;28;20053;-77
2022/12/24 05:09:31;;;;;;;30.27;5.60;;;;;;;;;;5035436;28;20482;-77
2022/12/24 05:11:57;;;;;;;25.90;5.82;;;;;;;;;;5035658;28;20124;-77
2022/12/24 05:14:23;;;;;;;32.63;5.93;;;;;;;;;;5030638;28;20053;-77
2022/12/24 05:16:50;;;;;;;26.67;5.28;;;;;;;;;;5035460;28;20053;-77
2022/12/24 05:19:16;;;;;;;24.77;5.53;;;;;;;;;;5015907;28;20104;-77
2022/12/24 05:21:42;;;;;;;28.80;6.05;;;;;;;;;;4998398;28;20125;-76
2022/12/24 05:26:56;;;;;;;28.75;6.15;;;;;;;;;;5017676;28;20057;-77
2022/12/24 05:29:22;;;;;;;33.50;5.88;;;;;;;;;;4996327;28;20045;-77
2022/12/24 05:31:48;;;;;;;33.70;5.85;;;;;;;;;;4997383;28;20054;-77
2022/12/24 05:34:15;;;;;;;32.97;5.95;;;;;;;;;;5017153;28;20045;-77
2022/12/24 05:36:41;;;;;;;36.53;6.22;;;;;;;;;;5015675;28;20073;-77
2022/12/24 05:39:08;;;;;;;35.45;6.32;;;;;;;;;;5007544;28;20494;-77
2022/12/24 05:41:34;;;;;;;30.65;6.32;;;;;;;;;;5015491;28;20077;-77
2022/12/24 05:44:00;;;;;;;33.75;5.75;;;;;;;;;;4997742;28;20057;-77
2022/12/24 05:46:26;;;;;;;36.08;6.15;;;;;;;;;;5013135;28;20037;-77
2022/12/24 05:48:52;;;;;;;32.72;6.63;;;;;;;;;;4978644;28;20418;-77
2022/12/24 05:51:21;;;;;;;30.23;5.80;;;;;;;;;;4996000;28;20078;-77
2022/12/24 05:53:47;;;;;;;34.47;6.20;;;;;;;;;;4982522;28;20053;-77
2022/12/24 05:56:15;;;;;;;31.92;5.95;;;;;;;;;;5035472;28;20489;-77
2022/12/24 05:58:42;;;;;;;34.65;6.40;;;;;;;;;;5034779;28;20042;-77
2022/12/24 06:01:08;;;;;;;34.60;6.47;;;;;;;;;;5003384;28;20048;-77
2022/12/24 06:03:35;;;;;;;36.40;6.95;;;;;;;;;;5023468;28;20073;-77
2022/12/24 06:06:06;;;;;;;33.10;6.65;;;;;;;;;;5018925;28;20056;-75
2022/12/24 06:08:32;;;;;;;40.95;6.70;;;;;;;;;;5019997;28;20041;-74
2022/12/24 06:11:00;;;;;;;34.70;6.63;;;;;;;;;;5015841;28;20056;-76
2022/12/24 06:13:26;;;;;;;37.72;7.35;;;;;;;;;;5015725;28;20133;-77
2022/12/24 06:15:56;;;;;;;37.97;6.45;;;;;;;;;;5034678;28;20472;-78
2022/12/24 06:18:22;;;;;;;34.50;7.13;;;;;;;;;;5034956;28;20037;-77
2022/12/24 06:20:52;;;;;;;40.30;6.00;;;;;;;;;;5015503;28;20501;-77
2022/12/24 06:23:18;;;;;;;30.70;6.05;;;;;;;;;;4981371;28;20050;-77
2022/12/24 06:25:44;;;;;;;38.50;6.00;;;;;;;;;;5016566;28;20068;-77
2022/12/24 06:28:10;;;;;;;33.83;7.05;;;;;;;;;;5002418;28;20099;-77
2022/12/24 06:30:36;;;;;;;42.72;6.47;;;;;;;;;;5015918;28;20037;-77
2022/12/24 06:33:02;;;;;;;36.22;7.05;;;;;;;;;;5000731;28;20049;-77
2022/12/24 06:35:30;;;;;;;36.25;6.55;;;;;;;;;;5002183;28;20053;-78
2022/12/24 06:37:56;;;;;;;37.80;7.20;;;;;;;;;;5015093;28;20056;-77
2022/12/24 06:40:22;;;;;;;34.33;6.15;;;;;;;;;;4995830;28;20042;-77
2022/12/24 06:42:48;;;;;;;37.38;6.00;;;;;;;;;;4997418;28;20096;-77
2022/12/24 06:45:14;;;;;;;36.75;6.57;;;;;;;;;;5018589;28;20045;-77
2022/12/24 06:47:40;;;;;;;29.77;5.80;;;;;;;;;;4997042;28;20046;-77
2022/12/24 06:50:07;;;;;;;31.27;6.85;;;;;;;;;;4996985;28;20057;-77
2022/12/24 06:52:33;;;;;;;32.42;5.72;;;;;;;;;;5029429;28;20064;-77
2022/12/24 06:54:59;;;;;;;39.67;5.90;;;;;;;;;;5006174;28;20072;-77
2022/12/24 06:57:25;;;;;;;39.45;6.25;;;;;;;;;;4996457;28;20491;-77
2022/12/24 06:59:51;;;;;;;28.52;5.93;;;;;;;;;;5014216;28;20052;-77
2022/12/24 07:02:17;;;;;;;30.10;5.80;;;;;;;;;;5016664;28;20046;-77
2022/12/24 07:04:43;;;;;;;33.22;6.18;;;;;;;;;;5016511;28;20167;-77
2022/12/24 07:07:09;;;;;;;38.83;6.85;;;;;;;;;;5001089;28;20116;-77
2022/12/24 07:09:35;;;;;;;27.45;5.30;;;;;;;;;;4994087;28;20046;-77
2022/12/24 07:12:01;;;;;;;36.70;6.47;;;;;;;;;;4982224;28;20052;-77
2022/12/24 07:14:27;;;;;;;36.65;6.78;;;;;;;;;;5004501;28;20058;-77
2022/12/24 07:16:57;;;;;;;40.33;6.22;;;;;;;;;;4999070;28;20084;-77
2022/12/24 07:19:23;;;;;;;41.80;5.82;;;;;;;;;;5026660;28;20125;-78
2022/12/24 07:21:49;;;;;;;29.42;6.20;;;;;;;;;;5035135;28;20505;-77
2022/12/24 07:24:16;;;;;;;39.47;6.22;;;;;;;;;;5006330;28;20060;-78
2022/12/24 07:26:42;;;;;;;35.95;6.45;;;;;;;;;;5013822;28;20041;-78
2022/12/24 07:29:08;;;;;;;26.77;5.38;;;;;;;;;;5013657;28;20042;-77
2022/12/24 07:31:34;;;;;;;32.35;6.30;;;;;;;;;;5013595;28;20057;-77
2022/12/24 07:34:00;;;;;;;33.55;5.53;;;;;;;;;;5028577;28;20052;-77
2022/12/24 07:36:27;;;;;;;34.90;6.13;;;;;;;;;;5023595;28;20150;-77
2022/12/24 07:38:53;;;;;;;29.75;5.80;;;;;;;;;;5011433;28;20056;-77
2022/12/24 07:41:20;;;;;;;37.05;6.38;;;;;;;;;;5032068;28;20052;-77
2022/12/24 07:43:47;;;;;;;31.08;5.40;;;;;;;;;;5018248;28;20049;-79
2022/12/24 07:46:16;;;;;;;35.88;5.97;;;;;;;;;;5014481;28;20501;-78
2022/12/24 07:48:42;;;;;;;32.92;6.15;;;;;;;;;;5010235;28;20046;-78
2022/12/24 07:51:08;;;;;;;38.40;6.28;;;;;;;;;;5009689;28;20474;-78
2022/12/24 07:53:35;;;;;;;33.67;5.72;;;;;;;;;;5015026;28;20072;-79
2022/12/24 07:56:01;;;;;;;42.70;6.05;;;;;;;;;;4997109;28;20044;-78
2022/12/24 07:58:27;;;;;;;34.90;5.50;;;;;;;;;;5015421;28;20077;-78
2022/12/24 08:00:57;;;;;;;35.38;6.35;;;;;;;;;;5015923;28;20577;-78
2022/12/24 08:03:23;;;;;;;36.50;6.50;;;;;;;;;;5015665;28;20041;-78
2022/12/24 08:05:51;;;;;;;36.80;5.85;;;;;;;;;;5034571;28;20072;-78
2022/12/24 08:08:17;;;;;;;40.22;6.55;;;;;;;;;;5020492;28;20541;-79
2022/12/24 08:10:44;;;;;;;30.50;5.85;;;;;;;;;;5017245;28;20076;-78
2022/12/24 08:13:10;;;;;;;30.40;5.50;;;;;;;;;;5016869;28;20049;-78
2022/12/24 08:15:36;;;;;;;33.35;5.88;;;;;;;;;;4997463;28;20053;-78
2022/12/24 08:18:03;;;;;;;26.05;6.38;;;;;;;;;;5015706;28;20078;-78
2022/12/24 08:20:29;;;;;;;40.30;6.43;;;;;;;;;;4997494;28;20497;-78
2022/12/24 08:22:55;;;;;;;31.20;6.35;;;;;;;;;;5015664;28;20038;-78
2022/12/24 08:25:21;;;;;;;33.67;6.38;;;;;;;;;;5015983;28;20041;-78
2022/12/24 08:27:47;;;;;;;35.88;5.65;;;;;;;;;;5015984;28;20038;-78
2022/12/24 08:30:13;;;;;;;30.60;5.22;;;;;;;;;;5014956;28;20049;-78
2022/12/24 08:32:39;;;;;;;32.70;6.75;;;;;;;;;;5015210;28;20093;-78
2022/12/24 08:35:05;;;;;;;32.90;6.00;;;;;;;;;;5015815;28;20078;-78
2022/12/24 08:37:31;;;;;;;31.52;6.20;;;;;;;;;;5003367;28;20431;-78
2022/12/24 08:39:57;;;;;;;31.45;6.22;;;;;;;;;;4993346;28;20066;-78
2022/12/24 08:42:23;;;;;;;32.70;6.22;;;;;;;;;;4994008;28;20496;-77
2022/12/24 08:44:49;;;;;;;36.25;6.50;;;;;;;;;;5008997;28;20037;-77
2022/12/24 08:47:15;;;;;;;34.28;6.30;;;;;;;;;;5013719;28;20049;-77
2022/12/24 08:49:41;;;;;;;30.63;6.45;;;;;;;;;;5014020;28;20053;-77
2022/12/24 08:52:07;;;;;;;29.05;6.50;;;;;;;;;;5000344;28;20054;-78
2022/12/24 08:54:33;;;;;;;26.50;6.15;;;;;;;;;;4994924;28;20047;-78
2022/12/24 08:56:59;;;;;;;33.72;6.35;;;;;;;;;;4994850;28;20386;-78
2022/12/24 08:59:25;;;;;;;44.10;6.85;;;;;;;;;;5002715;28;20053;-78
2022/12/24 09:01:51;;;;;;;28.30;6.65;;;;;;;;;;5017903;28;20044;-79
2022/12/24 09:04:19;;;;;;;23.70;6.35;;;;;;;;;;5027442;28;20034;-78
2022/12/24 09:06:45;;;;;;;32.83;6.00;;;;;;;;;;4998708;28;20148;-79
2022/12/24 09:09:11;;;;;;;37.33;6.47;;;;;;;;;;5016675;28;20096;-79
2022/12/24 09:11:37;;;;;;;25.80;6.45;;;;;;;;;;5008709;28;20042;-78
2022/12/24 09:14:03;;;;;;;32.53;6.53;;;;;;;;;;5006236;28;20526;-78
2022/12/24 09:16:29;;;;;;;33.05;7.05;;;;;;;;;;5018882;28;20490;-78
2022/12/24 09:18:56;;;;;;;35.25;7.03;;;;;;;;;;5010077;28;20060;-79
2022/12/24 09:21:22;;;;;;;25.15;8.38;;;;;;;;;;5020438;28;20097;-79
2022/12/24 09:23:48;;;;;;;39.97;7.72;;;;;;;;;;5024413;28;20132;-78
2022/12/24 09:26:19;;;;;;;26.42;6.05;;;;;;;;;;5031719;28;20045;-78
2022/12/24 09:28:46;;;;;;;29.85;7.00;;;;;;;;;;5001576;28;20057;-78
2022/12/24 09:31:12;;;;;;;26.77;6.28;;;;;;;;;;5007014;28;20042;-79
2022/12/24 09:33:39;;;;;;;31.10;6.82;;;;;;;;;;5018091;28;20042;-78
2022/12/24 09:36:06;;;;;;;31.92;6.65;;;;;;;;;;5029177;28;20095;-78
2022/12/24 09:38:33;;;;;;;34.00;6.75;;;;;;;;;;5029635;28;20053;-79
2022/12/24 09:40:59;;;;;;;25.70;5.75;;;;;;;;;;5010864;28;20129;-78
2022/12/24 09:43:32;;;;;;;27.95;7.82;;;;;;;;;;5015834;28;20069;-78
2022/12/24 09:46:16;;;;;;;30.95;6.93;;;;;;;;;;5018460;28;20042;-78
2022/12/24 09:48:44;;;;;;;26.02;6.55;;;;;;;;;;5018539;28;20394;-78
2022/12/24 09:51:11;;;;;;;27.08;6.45;;;;;;;;;;5018567;28;20111;-78
2022/12/24 09:53:41;;;;;;;35.75;6.68;;;;;;;;;;5017962;28;20049;-78
2022/12/24 09:56:12;;;;;;;23.80;5.78;;;;;;;;;;5020171;28;20064;-79
2022/12/24 09:58:47;;;;;;;26.92;6.53;;;;;;;;;;5019580;28;20049;-79
2022/12/24 10:01:13;;;;;;;28.38;6.57;;;;;;;;;;5018132;28;20046;-79
2022/12/24 10:03:40;;;;;;;30.77;6.40;;;;;;;;;;5017599;28;20050;-78
2022/12/24 10:06:09;;;;;;;35.50;7.05;;;;;;;;;;5017806;28;20038;-78
2022/12/24 10:08:35;;;;;;;26.15;6.07;;;;;;;;;;5018313;28;20498;-83
2022/12/24 10:11:14;;;;;;;30.77;6.00;;;;;;;;;;4981590;28;20393;-79
2022/12/24 10:13:48;;;;;;;39.00;7.57;;;;;;;;;;5001134;28;20042;-81
2022/12/24 10:16:14;;;;;;;34.28;6.10;;;;;;;;;;5019024;28;20058;-80
2022/12/24 10:19:03;;;;;;;33.30;7.50;;;;;;;;;;5004502;28;20124;-81
2022/12/24 10:21:32;;;;;;;31.52;6.53;;;;;;;;;;5002476;28;20384;-79
2022/12/24 10:24:13;;;;;;;29.33;6.65;;;;;;;;;;5015848;28;20046;-79
2022/12/24 10:26:44;;;;;;;24.00;5.90;;;;;;;;;;5018398;28;20478;-78
2022/12/24 10:29:22;;;;;;;28.77;6.75;;;;;;;;;;4987029;28;20050;-78
2022/12/24 10:31:55;;;;;;;25.08;5.95;;;;;;;;;;5036514;28;20041;-78
2022/12/24 10:34:48;;;;;;;25.77;6.50;;;;;;;;;;5035978;28;20041;-79
2022/12/24 10:37:22;;;;;;;18.90;5.47;;;;;;;;;;5031627;28;20045;-79
2022/12/24 10:39:48;;;;;;;28.90;5.95;;;;;;;;;;5004842;28;20050;-79
2022/12/24 10:42:15;;;;;;;30.13;6.30;;;;;;;;;;5012994;28;20052;-79
2022/12/24 10:44:41;;;;;;;27.25;5.85;;;;;;;;;;5006925;28;20384;-79
2022/12/24 10:47:09;;;;;;;27.42;6.28;;;;;;;;;;4999215;28;20042;-79
2022/12/24 10:49:38;;;;;;;27.13;5.45;;;;;;;;;;5016363;28;20609;-78
2022/12/24 10:52:11;;;;;;;33.42;5.65;;;;;;;;;;5019274;28;20409;-79
2022/12/24 10:54:57;;;;;;;28.05;5.75;;;;;;;;;;5016095;28;20097;-81
2022/12/24 10:57:29;;;;;;;32.08;5.65;;;;;;;;;;4999932;28;20046;-80
2022/12/24 10:59:58;;;;;;;28.35;5.93;;;;;;;;;;5003702;28;20129;-79
2022/12/24 11:02:38;;;;;;;26.77;5.93;;;;;;;;;;5001322;28;20042;-80
2022/12/24 11:05:24;;;;;;;28.73;5.88;;;;;;;;;;5001047;28;20125;-79
2022/12/24 11:08:24;;;;;;;24.33;5.78;;;;;;;;;;4988538;28;20050;-79
2022/12/24 11:10:57;;;;;;;27.75;6.10;;;;;;;;;;5014626;28;20062;-79
2022/12/24 11:13:30;;;;;;;30.65;7.38;;;;;;;;;;5017608;28;20450;-79
2022/12/24 11:16:19;;;;;;;30.05;6.45;;;;;;;;;;5026206;28;20069;-79
2022/12/24 11:18:47;;;;;;;26.73;5.68;;;;;;;;;;5012409;28;20058;-78
2022/12/24 11:21:18;;;;;;;22.10;6.35;;;;;;;;;;5028793;28;20146;-78
2022/12/24 11:23:49;;;;;;;21.95;6.32;;;;;;;;;;5035806;28;20379;-78
2022/12/24 11:26:20;;;;;;;22.58;5.38;;;;;;;;;;5036364;28;20053;-78
2022/12/24 11:29:02;;;;;;;18.23;5.15;;;;;;;;;;5024300;28;20053;-79
2022/12/24 11:31:31;;;;;;;24.33;5.30;;;;;;;;;;5017524;28;20100;-79
2022/12/24 11:33:57;;;;;;;18.60;4.72;;;;;;;;;;5003767;28;20052;-79
2022/12/24 11:36:25;;;;;;;20.55;4.50;;;;;;;;;;5019051;28;20046;-79
2022/12/24 11:38:55;;;;;;;18.85;4.75;;;;;;;;;;4999598;28;20053;-79
2022/12/24 11:41:22;;;;;;;18.85;5.00;;;;;;;;;;5016894;28;20402;-79
2022/12/24 11:43:49;;;;;;;20.67;5.43;;;;;;;;;;5017598;28;20081;-79
2022/12/24 11:46:20;;;;;;;23.65;5.45;;;;;;;;;;5019136;28;20597;-79
2022/12/24 11:48:47;;;;;;;24.23;5.53;;;;;;;;;;5010650;28;20042;-79
2022/12/24 11:51:21;;;;;;;18.88;5.68;;;;;;;;;;4997916;28;20053;-79
2022/12/24 11:54:22;;;;;;;19.40;6.03;;;;;;;;;;4999334;28;20042;-79
2022/12/24 11:56:53;;;;;;;17.60;5.28;;;;;;;;;;4937168;29;20082;-79
2022/12/24 11:59:27;;;;;;;17.58;4.72;;;;;;;;;;4930137;29;20412;-80
2022/12/24 12:01:58;;;;;;;26.02;4.95;;;;;;;;;;4938059;29;20088;-79
2022/12/24 12:04:27;;;;;;;18.42;4.45;;;;;;;;;;4937228;29;20067;-78
2022/12/24 12:06:55;;;;;;;17.98;4.85;;;;;;;;;;4937525;29;20063;-78
2022/12/24 12:09:24;;;;;;;25.33;7.38;;;;;;;;;;4937804;29;20495;-79
2022/12/24 12:11:51;;;;;;;20.98;6.22;;;;;;;;;;4936836;29;20440;-78
2022/12/24 12:14:36;;;;;;;11.45;4.45;;;;;;;;;;4936627;29;20063;-79
2022/12/24 12:17:20;;;;;;;11.68;4.38;;;;;;;;;;4936457;29;20131;-79
2022/12/24 12:19:57;;;;;;;19.98;4.43;;;;;;;;;;4918926;29;20051;-78
2022/12/24 12:22:27;;;;;;;18.73;4.32;;;;;;;;;;4935064;29;20039;-78
2022/12/24 12:24:55;;;;;;;19.80;4.18;;;;;;;;;;4934565;29;20084;-78
2022/12/24 12:27:36;;;;;;;13.48;4.43;;;;;;;;;;4933970;29;20043;-78
2022/12/24 12:30:03;;;;;;;15.65;4.30;;;;;;;;;;4949170;28;20054;-78
2022/12/24 12:32:41;;;;;;;19.25;4.60;;;;;;;;;;5014057;28;20099;-78
2022/12/24 12:35:15;;;;;;;13.88;4.07;;;;;;;;;;4980356;28;20046;-78
2022/12/24 12:37:44;;;;;;;14.57;3.85;;;;;;;;;;5014274;28;20050;-78
2022/12/24 12:40:14;;;;;;;13.73;3.80;;;;;;;;;;5017278;28;20042;-78
2022/12/24 12:42:44;;;;;;;15.00;4.05;;;;;;;;;;5005172;28;20392;-78
2022/12/24 12:45:19;;;;;;;14.70;3.80;;;;;;;;;;5018996;28;20459;-78
2022/12/24 12:47:52;;;;;;;15.90;4.32;;;;;;;;;;5022752;28;20046;-78
2022/12/24 12:50:18;;;;;;;18.40;4.63;;;;;;;;;;5019079;28;20050;-79
2022/12/24 12:52:59;;;;;;;14.00;4.97;;;;;;;;;;5018459;28;20050;-78
2022/12/24 12:55:49;;;;;;;13.52;4.15;;;;;;;;;;5018247;28;20056;-78
2022/12/24 12:58:25;;;;;;;17.70;4.43;;;;;;;;;;5000230;28;20121;-78
2022/12/24 13:00:54;;;;;;;13.00;3.85;;;;;;;;;;5010027;28;20053;-78
2022/12/24 13:03:20;;;;;;;10.48;3.38;;;;;;;;;;5019966;28;20105;-79
2022/12/24 13:06:05;;;;;;;16.75;4.68;;;;;;;;;;5017540;28;20038;-79
2022/12/24 13:08:49;;;;;;;13.93;4.47;;;;;;;;;;5017599;28;20038;-79
2022/12/24 13:11:15;;;;;;;20.10;6.35;;;;;;;;;;5017996;28;20133;-79
2022/12/24 13:13:59;;;;;;;14.13;4.85;;;;;;;;;;5010051;28;20038;-79
2022/12/24 13:16:40;;;;;;;18.42;5.32;;;;;;;;;;4997836;28;20074;-79
2022/12/24 13:19:14;;;;;;;18.10;4.18;;;;;;;;;;4997647;28;20050;-79
2022/12/24 13:21:43;;;;;;;16.67;4.73;;;;;;;;;;4997852;28;20125;-80
2022/12/24 13:24:15;;;;;;;12.65;4.00;;;;;;;;;;4997429;28;20081;-79
2022/12/24 13:26:42;;;;;;;19.60;4.57;;;;;;;;;;5024209;28;20045;-79
2022/12/24 13:29:26;;;;;;;19.80;4.93;;;;;;;;;;5013919;28;20093;-79
2022/12/24 13:31:53;;;;;;;15.98;5.00;;;;;;;;;;4997119;28;20459;-80
2022/12/24 13:34:36;;;;;;;16.67;4.55;;;;;;;;;;5012683;28;20073;-79
2022/12/24 13:37:03;;;;;;;13.27;4.63;;;;;;;;;;5016580;28;20078;-79
2022/12/24 13:39:49;;;;;;;15.98;4.22;;;;;;;;;;5016213;28;20108;-79
2022/12/24 13:42:35;;;;;;;15.48;4.60;;;;;;;;;;4995286;28;20073;-79
2022/12/24 13:45:20;;;;;;;23.00;5.47;;;;;;;;;;4997138;28;20367;-77
2022/12/24 13:47:46;;;;;;;20.90;5.72;;;;;;;;;;5007150;28;20042;-79
2022/12/24 13:50:22;;;;;;;18.83;5.20;;;;;;;;;;5017281;28;20050;-80
2022/12/24 13:52:52;;;;;;;19.45;5.10;;;;;;;;;;5017104;28;20046;-82
2022/12/24 13:55:18;;;;;;;23.95;7.32;;;;;;;;;;5013544;28;20050;-78
2022/12/24 13:57:47;;;;;;;19.95;6.00;;;;;;;;;;5008987;28;20042;-79
2022/12/24 14:00:34;;;;;;;23.85;6.68;;;;;;;;;;5006975;28;20130;-80
2022/12/24 14:03:08;;;;;;;21.73;6.72;;;;;;;;;;5019311;28;20038;-79
2022/12/24 14:05:45;;;;;;;20.23;6.38;;;;;;;;;;5019981;28;20093;-78
2022/12/24 14:08:14;;;;;;;31.30;8.38;;;;;;;;;;5019245;28;20046;-78
2022/12/24 14:10:45;;;;;;;26.80;7.60;;;;;;;;;;5016551;28;20512;-78
2022/12/24 14:13:30;;;;;;;26.95;8.05;;;;;;;;;;5018607;28;20053;-79
2022/12/24 14:15:59;;;;;;;23.38;6.28;;;;;;;;;;5019879;28;20054;-79
2022/12/24 14:18:32;;;;;;;24.15;7.40;;;;;;;;;;4984235;28;20108;-80
2022/12/24 14:20:59;;;;;;;23.27;6.50;;;;;;;;;;4999919;28;20056;-79
2022/12/24 14:23:31;;;;;;;19.77;6.00;;;;;;;;;;5001555;28;20046;-80
2022/12/24 14:25:58;;;;;;;19.17;5.25;;;;;;;;;;5020507;28;20512;-79
2022/12/24 14:28:28;;;;;;;21.17;5.38;;;;;;;;;;5020362;28;20041;-80
2022/12/24 14:31:20;;;;;;;15.45;4.80;;;;;;;;;;5015993;28;20529;-79
2022/12/24 14:33:46;;;;;;;19.73;5.50;;;;;;;;;;4998320;28;20050;-79
2022/12/24 14:36:14;;;;;;;21.45;5.72;;;;;;;;;;4999302;28;20046;-78
2022/12/24 14:38:41;;;;;;;21.45;5.95;;;;;;;;;;5000258;28;20081;-81
2022/12/24 14:41:25;;;;;;;18.58;5.53;;;;;;;;;;4982207;28;20054;-79
2022/12/24 14:43:57;;;;;;;20.23;5.65;;;;;;;;;;5000935;28;20405;-79
2022/12/24 14:46:27;;;;;;;26.48;7.05;;;;;;;;;;5022490;28;20051;-79
2022/12/24 14:48:58;;;;;;;32.33;8.57;;;;;;;;;;5037896;28;20405;-79